Terminal Aerodrome Forecast
Issued by NWS

Home | Current Version | Previous Version | Text Only | Print | Product List | Glossary On
Versions: 1 2 3 4 5 6 7 8 9 10 11 12 13 14 15 16 17 18 19 20
000
FTUS43 KAPX 262323
TAFTVC
TAF
KTVC 262323Z 2700/2724 32004KT P6SM SCT250
     FM270900 VRB03KT P6SM BKN110
     FM271200 13004KT P6SM SHRA OVC070
     FM271500 14004KT 5SM SHRA OVC040
     FM271700 13006KT 5SM SHRA OVC015
     FM271800 12006KT P6SM SHRA OVC020=

USA.gov is the U.S. government's official web portal to all federal, state and local government web resources and services.